createdAt,value
2023-01-11T00:00:45.620Z,72.41
2023-01-11T00:03:13.964Z,71.81
2023-01-11T00:05:43.267Z,72.69
2023-01-11T00:08:12.345Z,72.88
2023-01-11T00:10:41.414Z,73.06
2023-01-11T00:13:11.020Z,74.05
2023-01-11T00:15:40.645Z,73.54
2023-01-11T00:18:09.062Z,74.25
2023-01-11T00:20:39.793Z,74.19
2023-01-11T00:23:07.939Z,75.26
2023-01-11T00:25:36.646Z,74.49
2023-01-11T00:28:05.135Z,74.47
2023-01-11T00:30:35.553Z,74.42
2023-01-11T00:33:03.868Z,74.57
2023-01-11T00:35:33.286Z,74.89
2023-01-11T00:38:01.447Z,75.45
2023-01-11T00:40:29.555Z,76.08
2023-01-11T00:43:20.519Z,75.37
2023-01-11T00:46:15.995Z,75.21
2023-01-11T00:48:44.306Z,75.64
2023-01-11T00:51:12.548Z,74.99
2023-01-11T00:53:40.736Z,76.36
2023-01-11T00:56:09.226Z,77.04
2023-01-11T00:58:37.329Z,76.41
2023-01-11T01:01:09.351Z,76.91
2023-01-11T01:03:37.493Z,77.91
2023-01-11T01:06:05.876Z,77.54
2023-01-11T01:08:34.086Z,76.66
2023-01-11T01:11:02.278Z,77.27
2023-01-11T01:13:47.710Z,77.76
2023-01-11T01:16:17.362Z,77.96
2023-01-11T01:18:45.568Z,78.08
2023-01-11T01:21:13.799Z,78.82
2023-01-11T01:23:42.094Z,79.03
2023-01-11T01:26:10.407Z,78.39
2023-01-11T01:28:38.549Z,79.06
2023-01-11T01:31:06.769Z,79.61
2023-01-11T01:33:36.613Z,79.11
2023-01-11T01:36:05.640Z,77.51
2023-01-11T01:38:34.144Z,77.95
2023-01-11T01:41:02.657Z,80.15
2023-01-11T01:43:48.491Z,81.41
2023-01-11T01:46:17.002Z,82.71
2023-01-11T01:48:50.580Z,82.02
2023-01-11T01:51:22.646Z,81.70
2023-01-11T01:53:54.946Z,81.22
2023-01-11T01:56:29.661Z,81.58
2023-01-11T01:59:02.509Z,81.82
2023-01-11T02:01:50.754Z,82.31
2023-01-11T02:04:26.208Z,81.71
2023-01-11T02:07:00.199Z,81.92
2023-01-11T02:09:34.137Z,82.11
2023-01-11T02:12:04.313Z,82.07
2023-01-11T02:14:33.972Z,82.65
2023-01-11T02:17:02.358Z,82.67
2023-01-11T02:19:52.421Z,82.54
2023-01-11T02:23:01.793Z,82.69
2023-01-11T02:26:02.429Z,81.78
2023-01-11T02:28:36.912Z,81.52
2023-01-11T02:31:14.965Z,82.91
2023-01-11T02:33:52.302Z,82.97
2023-01-11T02:36:30.814Z,84.47
2023-01-11T02:39:04.115Z,85.61
2023-01-11T02:41:57.080Z,86.12
2023-01-11T02:45:01.345Z,85.26
2023-01-11T02:47:36.388Z,85.97
2023-01-11T02:50:13.907Z,86.79
2023-01-11T02:52:50.788Z,85.94
2023-01-11T02:55:25.477Z,86.48
2023-01-11T02:57:56.110Z,86.88
2023-01-11T03:00:27.058Z,87.41
2023-01-11T03:03:13.808Z,87.34
2023-01-11T03:05:50.562Z,87.53
2023-01-11T03:08:45.763Z,88.04
2023-01-11T03:11:37.617Z,88.14
2023-01-11T03:14:16.336Z,86.72
2023-01-11T03:16:53.161Z,85.50
2023-01-11T03:19:32.260Z,86.09
2023-01-11T03:22:08.440Z,86.33
2023-01-11T03:24:44.840Z,87.53
2023-01-11T03:27:22.470Z,87.93
2023-01-11T03:29:55.511Z,87.40
2023-01-11T03:32:34.259Z,87.39
2023-01-11T03:35:12.106Z,86.98
2023-01-11T03:37:46.025Z,86.83
2023-01-11T03:40:18.272Z,86.45
2023-01-11T03:43:05.939Z,86.94
2023-01-11T03:45:38.815Z,87.46
2023-01-11T03:48:12.547Z,88.82
2023-01-11T03:50:41.819Z,88.63
2023-01-11T03:53:11.664Z,89.38
2023-01-11T03:55:43.603Z,89.49
2023-01-11T03:58:12.103Z,88.98
2023-01-11T04:00:41.569Z,88.84
2023-01-11T04:03:12.863Z,88.05
2023-01-11T04:05:43.959Z,88.31
2023-01-11T04:08:12.557Z,88.86
2023-01-11T04:10:40.727Z,88.02
2023-01-11T04:13:08.946Z,87.89
2023-01-11T04:15:37.134Z,88.30
2023-01-11T04:18:06.039Z,89.05
2023-01-11T04:20:37.353Z,89.43
2023-01-11T04:23:06.080Z,89.96
2023-01-11T04:25:34.880Z,90.20
2023-01-11T04:28:03.391Z,89.67
2023-01-11T04:30:32.039Z,89.43
2023-01-11T04:33:00.991Z,88.93
2023-01-11T04:35:29.285Z,88.59
2023-01-11T04:37:59.119Z,88.46
2023-01-11T04:40:27.431Z,89.36
2023-01-11T04:42:54.565Z,88.71
2023-01-11T04:45:22.832Z,87.99
2023-01-11T04:47:55.454Z,87.35
2023-01-11T04:50:24.460Z,86.15
2023-01-11T04:52:52.878Z,87.32
2023-01-11T04:55:22.636Z,87.53
2023-01-11T04:57:50.864Z,88.31
2023-01-11T05:00:19.821Z,89.83
2023-01-11T05:02:47.963Z,90.64
2023-01-11T05:05:16.170Z,91.65
2023-01-11T05:07:44.386Z,91.87
2023-01-11T05:10:13.105Z,91.23
2023-01-11T05:12:42.700Z,90.06
2023-01-11T05:15:11.471Z,90.28
2023-01-11T05:17:39.707Z,89.89
2023-01-11T05:20:08.619Z,90.44
2023-01-11T05:22:36.760Z,90.34
2023-01-11T05:25:05.467Z,90.57
2023-01-11T05:27:34.226Z,90.89
2023-01-11T05:30:03.875Z,90.93
2023-01-11T05:32:32.053Z,91.17
2023-01-11T05:35:00.245Z,91.11
2023-01-11T05:37:28.431Z,91.42
2023-01-11T05:39:56.692Z,89.97
2023-01-11T05:42:24.855Z,88.72
2023-01-11T05:45:10.325Z,90.48
2023-01-11T05:47:39.941Z,91.94
2023-01-11T05:50:08.666Z,90.59
2023-01-11T05:52:36.885Z,90.73
2023-01-11T05:55:05.744Z,89.45
2023-01-11T05:57:34.096Z,89.10
2023-01-11T06:00:02.380Z,89.80
2023-01-11T06:02:30.698Z,91.62
2023-01-11T06:05:00.444Z,91.96
2023-01-11T06:07:28.769Z,92.60
2023-01-11T06:09:56.978Z,93.74
2023-01-11T06:12:25.211Z,94.44
2023-01-11T06:14:53.433Z,94.03
2023-01-11T06:17:21.646Z,92.52
2023-01-11T06:19:49.945Z,92.65
2023-01-11T06:22:19.601Z,93.87
2023-01-11T06:24:47.903Z,93.05
2023-01-11T06:27:18.132Z,93.47
2023-01-11T06:29:46.342Z,95.38
2023-01-11T06:32:14.571Z,95.11
2023-01-11T06:34:42.815Z,95.25
2023-01-11T06:37:11.030Z,94.23
2023-01-11T06:39:40.693Z,92.18
2023-01-11T06:42:08.887Z,92.88
2023-01-11T06:44:37.169Z,93.71
2023-01-11T06:47:05.558Z,94.73
2023-01-11T06:49:33.801Z,93.56
2023-01-11T06:52:02.192Z,93.05
2023-01-11T06:54:30.447Z,93.44
2023-01-11T06:57:00.099Z,92.90
2023-01-11T06:59:28.424Z,92.80
2023-01-11T07:01:56.663Z,91.28
2023-01-11T07:04:24.898Z,89.40
2023-01-11T07:06:55.672Z,90.05
2023-01-11T07:09:23.897Z,91.20
2023-01-11T07:11:52.145Z,91.37
2023-01-11T07:14:22.273Z,90.92
2023-01-11T07:16:50.425Z,90.33
2023-01-11T07:19:18.962Z,89.11
2023-01-11T07:21:47.166Z,89.11
2023-01-11T07:24:15.401Z,88.19
2023-01-11T07:26:43.961Z,88.10
2023-01-11T07:29:12.387Z,86.72
2023-01-11T07:31:42.062Z,84.16
2023-01-11T07:34:10.678Z,82.94
2023-01-11T07:36:39.792Z,80.21
2023-01-11T07:39:08.694Z,80.57
2023-01-11T07:41:54.793Z,81.76
2023-01-11T07:44:22.994Z,82.16
2023-01-11T07:46:52.733Z,83.13
2023-01-11T07:49:21.103Z,83.65
2023-01-11T07:51:49.336Z,83.46
2023-01-11T07:54:17.777Z,82.59
2023-01-11T07:56:45.997Z,83.12
2023-01-11T07:59:14.509Z,82.89
2023-01-11T08:01:42.778Z,82.27
2023-01-11T08:04:14.310Z,82.33
2023-01-11T08:06:42.824Z,81.81
2023-01-11T08:09:11.857Z,80.18
2023-01-11T08:11:57.842Z,78.81
2023-01-11T08:14:41.109Z,79.82
2023-01-11T08:17:10.829Z,78.90
2023-01-11T08:19:40.657Z,79.59
2023-01-11T08:22:09.447Z,80.39
2023-01-11T08:24:37.731Z,80.54
2023-01-11T08:27:06.475Z,81.05
2023-01-11T08:29:34.758Z,80.79
2023-01-11T08:32:03.623Z,80.05
2023-01-11T08:34:33.771Z,79.90
2023-01-11T08:37:05.449Z,81.10
2023-01-11T08:39:34.226Z,84.06
2023-01-11T08:42:03.260Z,84.98
2023-01-11T08:44:35.030Z,85.64
2023-01-11T08:47:03.734Z,85.04
2023-01-11T08:49:32.195Z,83.59
2023-01-11T08:52:00.406Z,84.48
2023-01-11T08:54:30.062Z,85.20
2023-01-11T08:56:58.341Z,84.65
2023-01-11T08:59:26.547Z,84.97
2023-01-11T09:01:54.835Z,83.58
2023-01-11T09:04:25.582Z,81.62
2023-01-11T09:06:54.842Z,82.04
2023-01-11T09:09:23.111Z,81.60
2023-01-11T09:11:56.768Z,80.48
2023-01-11T09:14:27.179Z,80.04
2023-01-11T09:16:56.622Z,80.31
2023-01-11T09:19:25.095Z,80.66
2023-01-11T09:21:53.786Z,80.56
2023-01-11T09:24:22.061Z,80.05
2023-01-11T09:26:50.349Z,79.64
2023-01-11T09:29:20.391Z,79.47
2023-01-11T09:31:48.715Z,78.48
2023-01-11T09:34:16.973Z,77.63
2023-01-11T09:36:47.500Z,75.92
2023-01-11T09:39:18.892Z,75.58
2023-01-11T09:42:19.277Z,74.05
2023-01-11T09:44:52.708Z,73.59
2023-01-11T09:47:31.521Z,72.78
2023-01-11T09:50:03.475Z,72.17
2023-01-11T09:52:39.754Z,72.39
2023-01-11T09:55:15.396Z,73.39
2023-01-11T09:57:55.963Z,73.35
2023-01-11T10:00:34.480Z,74.20
2023-01-11T10:03:27.311Z,73.78
2023-01-11T10:06:09.256Z,72.45
2023-01-11T10:18:34.254Z,73.49
2023-01-11T10:18:45.961Z,72.73
2023-01-11T10:21:18.240Z,71.33
2023-01-11T10:23:51.646Z,72.32
2023-01-11T10:26:36.247Z,71.89
2023-01-11T10:29:30.184Z,69.94
2023-01-11T10:32:27.679Z,69.81
2023-01-11T10:35:14.491Z,68.33
2023-01-11T10:37:59.719Z,69.09
2023-01-11T10:40:35.432Z,67.72
2023-01-11T10:43:13.108Z,65.57
2023-01-11T10:45:44.541Z,65.78
2023-01-11T10:48:20.848Z,66.05
2023-01-11T10:50:55.707Z,65.29
2023-01-11T10:53:30.545Z,66.17
2023-01-11T10:56:05.118Z,66.02
2023-01-11T10:58:50.804Z,65.40
2023-01-11T11:01:32.734Z,65.06
2023-01-11T11:04:15.677Z,62.93
2023-01-11T11:06:54.639Z,64.07
2023-01-11T11:09:28.040Z,64.63
2023-01-11T11:12:00.619Z,64.20
2023-01-11T11:14:35.824Z,64.91
2023-01-11T11:17:15.326Z,66.68
2023-01-11T11:19:43.501Z,64.91
2023-01-11T11:22:14.343Z,64.17
2023-01-11T11:24:45.281Z,67.28
2023-01-11T11:27:22.179Z,69.25
2023-01-11T11:29:53.165Z,69.73
2023-01-11T11:32:26.845Z,70.11
2023-01-11T11:34:55.325Z,69.84
2023-01-11T11:37:28.000Z,70.19
2023-01-11T11:39:56.936Z,69.99
2023-01-11T11:42:25.888Z,68.43
2023-01-11T11:45:17.207Z,67.98
2023-01-11T11:48:02.145Z,67.33
2023-01-11T11:50:44.771Z,67.83
2023-01-11T11:53:26.476Z,68.33
2023-01-11T11:55:55.347Z,67.51
2023-01-11T11:58:26.237Z,68.01
2023-01-11T12:00:54.726Z,67.75
2023-01-11T12:03:28.262Z,68.26
2023-01-11T12:06:00.399Z,69.18
2023-01-11T12:08:31.719Z,69.31
2023-01-11T12:11:02.375Z,68.21
2023-01-11T12:13:33.695Z,66.85
2023-01-11T12:16:03.609Z,68.59
2023-01-11T12:18:41.329Z,67.33
2023-01-11T12:21:21.301Z,67.41
2023-01-11T12:24:10.580Z,66.63
2023-01-11T12:26:45.166Z,67.58
2023-01-11T12:29:37.394Z,69.35
2023-01-11T12:32:15.710Z,69.50
2023-01-11T12:35:03.727Z,69.95
2023-01-11T12:37:51.331Z,68.30
2023-01-11T12:40:28.854Z,68.00
2023-01-11T12:43:24.322Z,68.40
2023-01-11T12:46:04.720Z,70.44
2023-01-11T12:48:59.173Z,69.50
2023-01-11T12:51:46.594Z,69.67
2023-01-11T12:54:31.799Z,69.77
2023-01-11T12:57:19.573Z,70.01
2023-01-11T13:00:17.772Z,70.96
2023-01-11T13:03:07.156Z,71.22
2023-01-11T13:05:45.247Z,72.88
2023-01-11T13:08:23.138Z,72.52
2023-01-11T13:11:02.704Z,71.75
2023-01-11T13:13:37.179Z,70.48
2023-01-11T13:16:10.806Z,70.75
2023-01-11T13:18:44.539Z,70.79
2023-01-11T13:21:25.548Z,72.76
2023-01-11T13:23:57.951Z,72.99
2023-01-11T13:26:30.964Z,71.56
2023-01-11T13:29:04.390Z,71.24
2023-01-11T13:31:35.217Z,71.77
2023-01-11T13:34:08.715Z,72.44
2023-01-11T13:36:42.155Z,72.08
2023-01-11T13:39:17.752Z,70.63
2023-01-11T13:41:50.146Z,69.94
2023-01-11T13:44:23.953Z,70.76
2023-01-11T13:47:04.533Z,71.38
2023-01-11T13:49:49.039Z,70.34
2023-01-11T13:52:20.340Z,71.12
2023-01-11T13:54:59.584Z,70.67
2023-01-11T13:57:36.508Z,71.19
2023-01-11T14:00:16.511Z,69.59
2023-01-11T14:02:48.062Z,68.27
2023-01-11T14:05:19.178Z,68.65
2023-01-11T14:08:01.118Z,69.57
2023-01-11T14:10:48.650Z,69.85
2023-01-11T14:14:07.705Z,70.38
2023-01-11T14:16:56.870Z,70.92
2023-01-11T14:19:32.891Z,71.49
2023-01-11T14:22:14.257Z,71.93
2023-01-11T14:24:49.057Z,71.07
2023-01-11T14:27:41.390Z,70.96
2023-01-11T14:30:34.433Z,71.38
2023-01-11T14:33:32.219Z,72.17
2023-01-11T14:36:34.428Z,72.40
2023-01-11T14:39:19.293Z,72.51
2023-01-11T14:42:31.285Z,71.73
2023-01-11T14:45:21.323Z,71.49
2023-01-11T14:48:13.683Z,72.47
2023-01-11T14:50:58.419Z,71.35
2023-01-11T14:53:31.078Z,71.61
2023-01-11T14:55:59.283Z,71.84
2023-01-11T14:58:29.361Z,72.67
2023-01-11T15:01:11.464Z,73.84
2023-01-11T15:03:49.359Z,73.70
2023-01-11T15:06:22.872Z,73.96
2023-01-11T15:08:56.248Z,74.31
2023-01-11T15:11:31.242Z,74.96
2023-01-11T15:14:04.540Z,75.08
2023-01-11T15:16:52.408Z,75.04
2023-01-11T15:19:34.071Z,75.54
2023-01-11T15:22:06.072Z,75.87
2023-01-11T15:24:37.803Z,75.85
2023-01-11T15:27:06.112Z,76.02
2023-01-11T15:29:38.846Z,76.81
2023-01-11T15:32:25.726Z,77.53
2023-01-11T15:34:54.435Z,77.89
2023-01-11T15:37:49.024Z,77.81
2023-01-11T15:40:21.259Z,78.43
2023-01-11T15:43:25.666Z,80.91
2023-01-11T15:46:29.791Z,81.68
2023-01-11T15:49:49.923Z,82.52
2023-01-11T15:52:57.011Z,82.09
2023-01-11T15:55:58.628Z,81.57
2023-01-11T15:58:56.657Z,82.54
2023-01-11T16:01:26.367Z,83.42
2023-01-11T16:04:01.198Z,83.36
2023-01-11T16:06:40.082Z,83.09
2023-01-11T16:09:28.820Z,83.66
2023-01-11T16:12:08.481Z,83.48
2023-01-11T16:15:01.178Z,84.96
2023-01-11T16:17:30.368Z,85.46
2023-01-11T16:19:58.901Z,84.17
2023-01-11T16:22:29.457Z,83.89
2023-01-11T16:25:01.499Z,84.21
2023-01-11T16:27:33.513Z,84.17
2023-01-11T16:30:03.636Z,83.54
2023-01-11T16:32:33.801Z,83.89
2023-01-11T16:35:03.774Z,83.11
2023-01-11T16:37:37.698Z,82.61
2023-01-11T16:40:14.544Z,82.52
2023-01-11T16:42:46.917Z,83.81
2023-01-11T16:45:20.726Z,82.50
2023-01-11T16:48:04.640Z,82.78
2023-01-11T16:50:34.321Z,82.67
2023-01-11T16:53:04.648Z,83.10
2023-01-11T16:55:36.754Z,83.01
2023-01-11T16:58:07.885Z,83.76
2023-01-11T17:00:39.894Z,84.44
2023-01-11T17:03:23.892Z,84.85
2023-01-11T17:06:02.024Z,83.91
2023-01-11T17:08:33.212Z,84.30
2023-01-11T17:11:05.490Z,83.89
2023-01-11T17:13:55.259Z,83.86
2023-01-11T17:16:29.210Z,84.02
2023-01-11T17:19:01.515Z,84.48
2023-01-11T17:21:31.434Z,84.93
2023-01-11T17:24:03.319Z,84.84
2023-01-11T17:26:36.028Z,82.95
2023-01-11T17:29:04.353Z,83.63
2023-01-11T17:31:36.634Z,84.63
2023-01-11T17:34:08.482Z,85.34
2023-01-11T17:36:37.615Z,85.75
2023-01-11T17:39:07.649Z,85.02
2023-01-11T17:41:54.197Z,84.54
2023-01-11T17:44:41.751Z,82.72
2023-01-11T17:47:14.037Z,82.61
2023-01-11T17:49:42.259Z,82.24
2023-01-11T17:52:12.595Z,82.06
2023-01-11T17:54:40.866Z,82.66
2023-01-11T17:57:11.171Z,82.92
2023-01-11T17:59:39.443Z,83.25
2023-01-11T18:02:15.054Z,84.32
2023-01-11T18:04:44.436Z,84.81
2023-01-11T18:07:18.029Z,85.01
2023-01-11T18:09:48.709Z,84.22
2023-01-11T18:12:21.616Z,83.83
2023-01-11T18:14:54.203Z,83.40
2023-01-11T18:17:39.081Z,83.37
2023-01-11T18:20:38.385Z,83.35
2023-01-11T18:23:18.916Z,83.83
2023-01-11T18:25:47.575Z,84.37
2023-01-11T18:28:31.002Z,84.58
2023-01-11T18:31:02.104Z,84.45
2023-01-11T18:33:34.728Z,84.39
2023-01-11T18:36:05.130Z,84.79
2023-01-11T18:38:34.926Z,84.81
2023-01-11T18:41:21.641Z,85.50
2023-01-11T18:43:49.929Z,86.23
2023-01-11T18:46:18.327Z,87.57
2023-01-11T18:48:48.030Z,87.66
2023-01-11T18:51:19.523Z,87.21
2023-01-11T18:53:47.697Z,86.87
2023-01-11T18:56:16.519Z,86.30
2023-01-11T18:58:44.849Z,86.74
2023-01-11T19:01:13.506Z,86.46
2023-01-11T19:03:43.749Z,86.20
2023-01-11T19:06:19.417Z,85.58
2023-01-11T19:08:47.692Z,85.28
2023-01-11T19:11:16.946Z,85.35
2023-01-11T19:13:46.761Z,84.87
2023-01-11T19:16:16.084Z,84.67
2023-01-11T19:18:45.356Z,85.27
2023-01-11T19:21:14.408Z,85.02
2023-01-11T19:23:43.987Z,84.92
2023-01-11T19:26:12.116Z,85.20
2023-01-11T19:28:40.277Z,83.69
2023-01-11T19:31:09.283Z,85.49
2023-01-11T19:33:37.625Z,86.58
2023-01-11T19:36:07.221Z,87.65
2023-01-11T19:38:35.377Z,87.76
2023-01-11T19:41:07.784Z,86.69
2023-01-11T19:43:36.716Z,85.79
2023-01-11T19:46:05.171Z,84.35
2023-01-11T19:48:34.472Z,83.62
2023-01-11T19:51:03.512Z,83.00
2023-01-11T19:53:31.943Z,82.08
2023-01-11T19:56:06.264Z,82.67
2023-01-11T19:58:38.353Z,83.65
2023-01-11T20:01:11.925Z,84.02
2023-01-11T20:03:41.699Z,84.49
2023-01-11T20:06:10.717Z,85.38
2023-01-11T20:08:41.253Z,85.17
2023-01-11T20:11:13.605Z,85.21
2023-01-11T20:13:42.420Z,84.71
2023-01-11T20:16:13.985Z,84.82
2023-01-11T20:18:42.930Z,84.54
2023-01-11T20:21:12.198Z,85.49
2023-01-11T20:23:40.388Z,84.87
2023-01-11T20:26:15.069Z,85.31
2023-01-11T20:28:43.616Z,85.14
2023-01-11T20:31:12.516Z,84.75
2023-01-11T20:33:40.771Z,84.79
2023-01-11T20:36:13.444Z,84.99
2023-01-11T20:38:41.764Z,85.13
2023-01-11T20:41:12.779Z,85.67
2023-01-11T20:43:41.391Z,86.24
2023-01-11T20:46:09.593Z,86.24
2023-01-11T20:48:37.808Z,86.09
2023-01-11T20:51:06.547Z,86.44
2023-01-11T20:53:34.655Z,86.92
2023-01-11T20:56:05.874Z,86.28
2023-01-11T20:58:35.964Z,86.78
2023-01-11T21:01:05.434Z,86.70
2023-01-11T21:03:33.686Z,85.11
2023-01-11T21:06:03.213Z,85.48
2023-01-11T21:08:31.457Z,86.19
2023-01-11T21:11:05.526Z,87.09
2023-01-11T21:13:35.482Z,87.27
2023-01-11T21:16:08.344Z,87.75
2023-01-11T21:18:36.970Z,86.07
2023-01-11T21:21:05.711Z,85.93
2023-01-11T21:23:33.854Z,86.32
2023-01-11T21:26:04.743Z,87.15
2023-01-11T21:28:32.925Z,86.57
2023-01-11T21:31:05.497Z,87.23
2023-01-11T21:33:34.272Z,87.50
2023-01-11T21:36:07.613Z,87.47
2023-01-11T21:38:36.604Z,88.01
2023-01-11T21:41:06.206Z,88.50
2023-01-11T21:43:34.697Z,88.56
2023-01-11T21:46:05.428Z,88.64
2023-01-11T21:48:33.996Z,89.48
2023-01-11T21:51:02.116Z,89.07
2023-01-11T21:53:31.085Z,89.95
2023-01-11T21:56:03.269Z,89.00
2023-01-11T21:58:31.519Z,89.38
2023-01-11T22:00:59.782Z,89.49
2023-01-11T22:03:30.241Z,89.67
2023-01-11T22:06:01.847Z,89.54
2023-01-11T22:08:30.441Z,89.79
2023-01-11T22:10:59.382Z,90.16
2023-01-11T22:13:29.112Z,90.75
2023-01-11T22:16:01.183Z,90.97
2023-01-11T22:18:31.577Z,94.37
2023-01-11T22:21:06.417Z,98.32
2023-01-11T22:23:34.520Z,97.80
2023-01-11T22:26:05.139Z,98.88
2023-01-11T22:28:53.396Z,100.00
2023-01-11T22:31:22.355Z,99.53
2023-01-11T22:33:52.359Z,100.00
2023-01-11T22:36:20.800Z,100.00
2023-01-11T22:38:48.984Z,100.00
2023-01-11T22:41:17.279Z,100.00
2023-01-11T22:43:46.226Z,100.00
2023-01-11T22:46:16.266Z,100.00
2023-01-11T22:48:47.026Z,100.00
2023-01-11T22:51:17.499Z,100.00
2023-01-11T22:53:47.646Z,100.00
2023-01-11T22:56:19.156Z,100.00
2023-01-11T22:58:47.849Z,100.00
2023-01-11T23:01:17.508Z,100.00
2023-01-11T23:03:46.364Z,100.00
2023-01-11T23:06:17.527Z,100.00
2023-01-11T23:08:46.094Z,100.00
2023-01-11T23:11:36.200Z,100.00
2023-01-11T23:14:04.374Z,100.00
2023-01-11T23:16:32.962Z,100.00
2023-01-11T23:19:01.625Z,100.00
2023-01-11T23:21:31.395Z,100.00
2023-01-11T23:24:01.565Z,100.00
2023-01-11T23:26:30.058Z,100.00
2023-01-11T23:28:58.200Z,100.00
2023-01-11T23:31:29.442Z,100.00
2023-01-11T23:33:59.764Z,100.00
2023-01-11T23:36:31.794Z,100.00
2023-01-11T23:39:00.302Z,100.00
2023-01-11T23:41:45.926Z,100.00
2023-01-11T23:44:15.332Z,100.00
2023-01-11T23:47:01.586Z,100.00
2023-01-11T23:49:30.588Z,100.00
2023-01-11T23:52:00.545Z,100.00
2023-01-11T23:54:30.433Z,100.00
2023-01-11T23:56:58.960Z,100.00
2023-01-11T23:59:27.335Z,100.00
